createdAt,value
2019-04-16T00:03:47.805Z,11.30
2019-04-16T00:09:07.572Z,12.37
2019-04-16T00:14:20.686Z,11.53
2019-04-16T00:19:26.116Z,11.53
2019-04-16T00:24:32.939Z,11.13
2019-04-16T00:29:39.807Z,10.67
2019-04-16T00:34:47.298Z,11.23
2019-04-16T00:39:55.527Z,11.47
2019-04-16T00:44:58.226Z,11.37
2019-04-16T00:50:03.142Z,10.60
2019-04-16T00:55:08.305Z,9.60
2019-04-16T01:00:12.965Z,12.07
2019-04-16T01:05:17.716Z,11.70
2019-04-16T01:10:22.958Z,11.97
2019-04-16T01:15:29.223Z,12.83
2019-04-16T01:20:34.610Z,13.18
2019-04-16T01:25:39.531Z,12.03
2019-04-16T01:31:08.077Z,12.93
2019-04-16T01:36:26.251Z,12.03
2019-04-16T01:41:31.081Z,11.77
2019-04-16T01:46:35.984Z,12.07
2019-04-16T01:51:40.733Z,11.30
2019-04-16T01:56:45.510Z,11.27
2019-04-16T02:01:52.573Z,11.77
2019-04-16T02:06:57.275Z,11.27
2019-04-16T02:12:02.707Z,11.25
2019-04-16T02:17:07.451Z,11.60
2019-04-16T02:22:13.603Z,11.23
2019-04-16T02:27:18.597Z,11.47
2019-04-16T02:32:23.758Z,11.23
2019-04-16T02:37:28.670Z,11.63
2019-04-16T02:42:33.738Z,12.37
2019-04-16T02:47:41.793Z,10.97
2019-04-16T02:53:07.206Z,11.17
2019-04-16T02:58:15.609Z,12.00
2019-04-16T03:03:26.628Z,10.70
2019-04-16T03:08:33.392Z,12.03
2019-04-16T03:13:38.265Z,11.77
2019-04-16T03:18:56.446Z,11.57
2019-04-16T03:24:01.470Z,11.93
2019-04-16T03:29:06.318Z,11.07
2019-04-16T03:34:11.302Z,12.57
2019-04-16T03:39:17.097Z,14.43
2019-04-16T03:44:21.648Z,13.65
2019-04-16T03:49:29.259Z,13.73
2019-04-16T03:54:34.299Z,14.20
2019-04-16T03:59:39.961Z,13.83
2019-04-16T04:04:48.775Z,12.53
2019-04-16T04:09:55.230Z,12.77
2019-04-16T04:15:00.733Z,15.00
2019-04-16T04:20:06.463Z,13.93
2019-04-16T04:25:11.673Z,13.90
2019-04-16T04:30:19.032Z,15.50
2019-04-16T04:35:23.520Z,14.77
2019-04-16T04:40:43.482Z,14.03
2019-04-16T04:45:37.653Z,13.83
2019-04-16T04:50:42.783Z,14.40
2019-04-16T04:55:50.626Z,14.10
2019-04-16T05:00:56.006Z,13.23
2019-04-16T05:06:02.073Z,12.07
2019-04-16T05:11:06.665Z,11.70
2019-04-16T05:16:11.842Z,10.77
2019-04-16T05:21:18.660Z,10.53
2019-04-16T05:26:22.636Z,12.63
2019-04-16T05:31:27.500Z,12.03
2019-04-16T05:36:32.402Z,11.77
2019-04-16T05:41:37.394Z,12.27
2019-04-16T05:46:46.397Z,13.77
2019-04-16T05:51:51.393Z,13.77
2019-04-16T05:56:58.927Z,13.60
2019-04-16T06:02:18.175Z,13.38
2019-04-16T06:07:21.102Z,13.27
2019-04-16T06:12:32.531Z,12.83
2019-04-16T06:17:57.009Z,14.35
2019-04-16T06:23:20.936Z,13.97
2019-04-16T06:28:45.070Z,13.23
2019-04-16T06:34:07.508Z,11.60
2019-04-16T06:39:22.742Z,10.50
2019-04-16T06:44:30.232Z,11.12
2019-04-16T06:49:51.064Z,11.10
2019-04-16T06:55:03.293Z,11.10
2019-04-16T07:00:34.061Z,12.15
2019-04-16T07:05:56.202Z,11.60
2019-04-16T07:11:02.515Z,12.68
2019-04-16T07:16:09.672Z,12.80
2019-04-16T07:21:18.138Z,13.70
2019-04-16T07:26:23.565Z,14.60
2019-04-16T07:31:56.651Z,15.60
2019-04-16T07:37:20.685Z,16.30
2019-04-16T07:42:30.588Z,17.07
2019-04-16T07:47:52.701Z,16.77
2019-04-16T07:53:14.348Z,16.15
2019-04-16T07:58:25.758Z,17.35
2019-04-16T08:03:31.224Z,17.02
2019-04-16T08:08:36.751Z,16.53
2019-04-16T08:13:42.063Z,17.12
2019-04-16T08:18:50.864Z,17.67
2019-04-16T08:24:03.914Z,17.83
2019-04-16T08:29:08.681Z,18.07
2019-04-16T08:34:16.383Z,18.57
2019-04-16T08:39:20.895Z,17.98
2019-04-16T08:44:25.998Z,16.82
2019-04-16T08:49:30.833Z,17.50
2019-04-16T08:54:50.009Z,16.12
2019-04-16T09:00:21.031Z,17.50
2019-04-16T09:05:25.758Z,16.80
2019-04-16T09:10:31.116Z,17.45
2019-04-16T09:15:36.286Z,16.85
2019-04-16T09:20:42.543Z,16.87
2019-04-16T09:25:52.497Z,18.10
2019-04-16T09:31:28.474Z,18.40
2019-04-16T09:37:08.363Z,16.15
2019-04-16T09:42:13.386Z,16.12
2019-04-16T09:47:18.401Z,16.73
2019-04-16T09:52:24.176Z,15.03
2019-04-16T09:57:31.412Z,14.93
2019-04-16T10:02:37.200Z,13.65
2019-04-16T10:07:42.722Z,12.95
2019-04-16T10:12:47.453Z,12.50
2019-04-16T10:17:52.749Z,13.38
2019-04-16T10:22:58.455Z,11.68
2019-04-16T10:28:16.471Z,11.68
2019-04-16T10:33:21.451Z,12.50
2019-04-16T10:38:45.147Z,12.68
2019-04-16T10:44:07.656Z,12.37
2019-04-16T10:49:34.795Z,12.45
2019-04-16T10:54:54.223Z,12.13
2019-04-16T11:00:05.563Z,11.10
2019-04-16T11:05:23.231Z,10.30
2019-04-16T11:10:28.243Z,10.80
2019-04-16T11:15:32.678Z,10.13
2019-04-16T11:20:37.188Z,10.45
2019-04-16T11:25:42.110Z,9.57
2019-04-16T11:30:49.393Z,8.80
2019-04-16T11:35:54.648Z,6.83
2019-04-16T11:41:01.143Z,4.40
2019-04-16T11:46:06.060Z,5.65
2019-04-16T11:51:11.379Z,5.33
2019-04-16T11:56:16.186Z,5.67
2019-04-16T12:01:52.863Z,5.72
2019-04-16T12:07:07.670Z,5.22
2019-04-16T12:12:17.097Z,5.72
2019-04-16T12:17:31.316Z,5.35
2019-04-16T12:22:50.281Z,5.20
2019-04-16T12:28:12.734Z,4.90
2019-04-16T12:33:24.789Z,6.05
2019-04-16T12:38:37.286Z,5.50
2019-04-16T12:43:55.356Z,6.12
2019-04-16T12:49:18.185Z,5.15
2019-04-16T12:54:51.431Z,5.97
2019-04-16T13:00:14.073Z,6.30
2019-04-16T13:05:44.645Z,9.10
2019-04-16T13:11:03.068Z,10.82
2019-04-16T13:16:20.095Z,11.60
2019-04-16T13:21:28.967Z,11.18
2019-04-16T13:26:36.665Z,11.57
2019-04-16T13:31:46.006Z,12.23
2019-04-16T13:36:51.868Z,12.63
2019-04-16T13:41:57.123Z,13.58
2019-04-16T13:47:03.809Z,12.70
2019-04-16T13:52:08.861Z,5.17
2019-04-16T13:57:16.259Z,4.77
2019-04-16T14:02:38.731Z,5.83
2019-04-16T14:07:43.939Z,5.12
2019-04-16T14:12:49.699Z,5.80
2019-04-16T14:17:59.696Z,7.57
2019-04-16T14:23:03.573Z,9.93
2019-04-16T14:28:09.139Z,11.03
2019-04-16T14:33:17.777Z,10.77
2019-04-16T14:38:29.202Z,8.30
2019-04-16T14:43:38.139Z,8.77
2019-04-16T14:48:46.380Z,8.50
2019-04-16T14:54:25.366Z,8.53
2019-04-16T14:59:54.946Z,7.83
2019-04-16T15:05:15.728Z,8.40
2019-04-16T15:10:53.396Z,6.63
2019-04-16T15:16:20.997Z,7.00
2019-04-16T15:21:58.232Z,7.07
2019-04-16T15:27:28.165Z,7.43
2019-04-16T15:33:09.714Z,7.87
2019-04-16T15:38:33.207Z,8.20
2019-04-16T15:43:50.719Z,7.67
2019-04-16T15:49:12.536Z,6.97
2019-04-16T15:54:26.731Z,8.03
2019-04-16T15:59:38.892Z,9.93
2019-04-16T16:04:52.285Z,9.33
2019-04-16T16:10:14.561Z,9.53
2019-04-16T16:15:19.652Z,9.10
2019-04-16T16:20:26.892Z,8.53
2019-04-16T16:25:31.409Z,9.83
2019-04-16T16:30:36.353Z,7.80
2019-04-16T16:35:40.853Z,6.43
2019-04-16T16:46:37.630Z,5.43
2019-04-16T18:18:08.043Z,4.97
2019-04-16T18:23:39.547Z,4.83
2019-04-16T18:29:09.292Z,4.30
2019-04-16T18:35:16.595Z,5.93
2019-04-16T18:40:35.269Z,6.60
2019-04-16T18:46:08.227Z,6.33
2019-04-16T18:51:12.660Z,7.07
2019-04-16T18:56:22.679Z,6.00
2019-04-16T19:01:39.784Z,7.60
2019-04-16T19:06:36.777Z,8.10
2019-04-16T19:11:41.135Z,8.03
2019-04-16T19:16:47.170Z,8.60
2019-04-16T19:21:53.116Z,9.17
2019-04-16T19:27:05.853Z,9.08
2019-04-16T19:32:14.840Z,8.67
2019-04-16T19:37:19.733Z,8.33
2019-04-16T19:42:28.750Z,8.67
2019-04-16T19:47:37.414Z,9.70
2019-04-16T19:52:48.895Z,7.80
2019-04-16T19:57:56.691Z,8.10
2019-04-16T20:02:59.615Z,6.93
2019-04-16T20:08:11.489Z,7.07
2019-04-16T20:13:16.515Z,7.23
2019-04-16T20:18:31.986Z,7.43
2019-04-16T20:23:49.243Z,7.27
2019-04-16T20:29:00.079Z,7.23
2019-04-16T20:34:26.699Z,6.57
2019-04-16T20:45:19.280Z,6.62
2019-04-16T20:50:27.458Z,6.17
2019-04-16T20:55:41.152Z,6.57
2019-04-16T21:01:01.810Z,7.57
2019-04-16T21:06:21.304Z,7.50
2019-04-16T21:11:34.606Z,7.03
2019-04-16T21:17:05.764Z,7.33
2019-04-16T21:22:11.703Z,6.65
2019-04-16T21:27:25.198Z,7.20
2019-04-16T21:33:20.527Z,6.43
2019-04-16T21:38:45.158Z,6.67
2019-04-16T21:44:05.655Z,7.00
2019-04-16T21:49:37.737Z,7.43
2019-04-16T21:54:39.839Z,7.33
2019-04-16T22:06:23.355Z,6.93
2019-04-16T22:11:49.714Z,6.70
2019-04-16T22:17:28.861Z,5.67
2019-04-16T22:22:38.256Z,6.80
2019-04-16T22:28:11.365Z,6.03
2019-04-16T22:33:30.042Z,5.77
2019-04-16T22:38:50.903Z,6.00
2019-04-16T22:44:38.640Z,6.50
2019-04-16T22:50:16.725Z,5.83
2019-04-16T22:55:24.933Z,5.13
2019-04-16T23:00:58.773Z,6.83
2019-04-16T23:12:27.051Z,6.27
2019-04-16T23:18:17.521Z,6.10
2019-04-16T23:23:51.355Z,5.93
2019-04-16T23:29:16.371Z,6.07
2019-04-16T23:34:19.034Z,5.93
2019-04-16T23:40:07.500Z,5.77
2019-04-16T23:46:05.534Z,5.37
2019-04-16T23:51:22.604Z,5.97
2019-04-16T23:56:41.226Z,7.20
